Naples, FL (34117)

10:44 PM EDT on May 27, 2017 (GMT -0400)
MSGGEW | | Change Station
Active Advisory: Fire Weather Watch

Elev 6 ft 26.15 °N, 81.58 °W | Updated 19 days ago

Clear
Clear
79.0 °F
Feels Like 80 °F
N
4.0
Wind Variable Wind from East
Gusts 9.0 mph

Today
High -- | Low -- °F
--% Chance of Precip.
Yesterday
High -- | Low -- °F
Precip. -- in
Pressure 30.04 in
Visibility 10.0 miles
Clouds Clear
Heat Index 80 °F
Dew Point 58 °F
Humidity 48%
Rainfall 0.00 in
Snow Depth Not available.
6:35 AM 8:12 PM
Waxing Crescent, 8% visible
METAR KAPF 280153Z 31005KT 10SM CLR 28/22 A3004 RMK AO2 SLP171 T02780222
Pressure 30.04 in
Visibility 10.0 miles
Clouds Clear
Heat Index 80 °F
Dew Point 58 °F
Humidity 48%
Rainfall 0.00 in
Snow Depth Not available.
6:35 AM 8:12 PM
Waxing Crescent, 8% visible
METAR KAPF 280153Z 31005KT 10SM CLR 28/22 A3004 RMK AO2 SLP171 T02780222

Get Your Daily Forecast Email!

Thanks for signing up!

Be on the lookout for a verification email in your inbox.

You'll start receiving severe weather alerts in your inbox..

×

10-Day Weather Forecast

Almanac

Astronomy

May. 27, 2017 Rise Set
Actual Time
Civil Twilight
Nautical Twilight
Astronomical Twilight
Moon
Length of Visible Light
Length of Day
Tomorrow will be .
, % of the Moon is Illuminated

Today's Extremes

State Highs State Lows

Community

WunderPhotos

Category 6

Welcome to Category 6. This is the collective home for Weather Underground's featured writeups by Dr. Jeff Masters (right), Bob Henson (left), Chris Burt, and other regular contributors.

Nearby

Air Quality

  Air Quality AQ Index Pollutant
Not available.

Snow Depth

Station Depth Elevation

Earthquake Activity

City Distance Mag. Time & Date
Minimum magnitude displayed is 2.5.

Coastal Water Temperatures

Place Temperature

Stations

Nearby Weather Stations

Station Location Temp. Windchill Dew Point Humidity Wind Precip. Elev Updated Type
                   

Watches & Warnings

Fire Weather Watch
Issued: 8:10 PM EDT May. 27, 2017 – National Weather Service

... Fire Weather Watch remains in effect from Sunday afternoon
through Sunday evening for low humidity and moderate wind for
fire weather zone 070...

* affected area... fire weather zones 070.

* Wind... west 8 to 12 mph

* humidity... as low as 35 percent

* impacts... any fires that develop will likely see extreme fire
behavior. Outdoor burning is not recommended.

Precautionary/preparedness actions...

A Fire Weather Watch means that critical fire weather conditions
are forecast to occur. Listen for later forecasts and possible
red flag warnings.